Time;durP1;ratioP1;P1;durP2;ratioP2;P2;SDS_P1;SDS_P2;PMS_P1;PMS_P2;Temp;Humidity;BMP_temperature;BMP_pressure;BME280_temperature;BME280_humidity;BME280_pressure;Samples;Min_cycle;Max_cycle;Signal;HPM_P1;HPM_P2
2022/10/08 00:01:04;;;;;;;3.10;2.23;;;;;;;9.85;nan;-24092.06;5094284;28;20185;-76
2022/10/08 00:03:39;;;;;;;4.47;3.00;;;;;;;10.10;nan;-24099.13;5094788;28;20236;-76
2022/10/08 00:06:05;;;;;;;5.20;2.47;;;;;;;10.15;nan;-24100.53;5094827;28;20683;-76
2022/10/08 00:08:34;;;;;;;4.90;2.90;;;;;;;9.99;nan;-24096.16;5095052;28;20170;-75
2022/10/08 00:11:12;;;;;;;2.83;2.53;;;;;;;10.07;nan;-24098.44;5094773;28;20607;-76
2022/10/08 00:13:39;;;;;;;4.20;2.73;;;;;;;10.00;nan;-24096.44;5076062;28;20169;-76
2022/10/08 00:16:11;;;;;;;6.07;2.93;;;;;;;10.09;nan;-24098.84;5076392;28;20564;-76
2022/10/08 00:18:41;;;;;;;4.57;2.53;;;;;;;10.03;nan;-24097.31;5076230;28;20184;-75
2022/10/08 00:21:15;;;;;;;4.53;2.80;;;;;;;9.66;nan;-24086.97;5076042;28;20222;-76
2022/10/08 00:23:47;;;;;;;4.43;2.37;;;;;;;10.02;nan;-24097.03;5094205;28;20672;-75
2022/10/08 00:26:14;;;;;;;4.10;3.23;;;;;;;10.00;nan;-24096.44;5094778;28;20189;-74
2022/10/08 00:28:45;;;;;;;7.87;3.13;;;;;;;10.11;nan;-24099.41;5094295;28;20196;-78
2022/10/08 00:31:14;;;;;;;4.53;2.43;;;;;;;10.18;nan;-24101.41;5076186;28;20638;-76
2022/10/08 00:33:39;;;;;;;5.00;2.73;;;;;;;9.71;nan;-24088.41;5094170;28;20173;-74
2022/10/08 00:36:08;;;;;;;4.57;2.27;;;;;;;9.71;nan;-24088.41;5075775;28;20184;-76
2022/10/08 00:38:34;;;;;;;3.17;2.53;;;;;;;9.64;nan;-24086.28;5094314;28;20185;-75
2022/10/08 00:41:00;;;;;;;2.80;2.40;;;;;;;9.93;nan;-24094.34;5094226;28;20177;-75
2022/10/08 00:43:56;;;;;;;3.93;2.97;;;;;;;10.21;nan;-24102.09;5093691;28;20258;-77
2022/10/08 00:46:24;;;;;;;4.97;2.97;;;;;;;9.98;nan;-24095.88;5055133;28;20294;-73
2022/10/08 00:48:55;;;;;;;7.97;2.77;;;;;;;9.93;nan;-24094.34;5093586;28;20246;-75
2022/10/08 00:51:23;;;;;;;3.07;2.07;;;;;;;9.83;nan;-24091.66;5094017;28;20192;-77
2022/10/08 00:53:49;;;;;;;2.57;2.20;;;;;;;9.90;nan;-24093.63;5084765;28;20180;-74
2022/10/08 00:56:14;;;;;;;3.30;2.70;;;;;;;9.70;nan;-24087.97;5097112;28;20169;-76
2022/10/08 00:58:42;;;;;;;3.07;2.47;;;;;;;9.85;nan;-24092.22;5082152;28;20169;-75
2022/10/08 01:01:08;;;;;;;1.93;1.73;;;;;;;10.15;nan;-24100.69;5100983;28;20173;-73
2022/10/08 01:03:33;;;;;;;2.53;2.33;;;;;;;9.83;nan;-24091.66;5098983;28;20660;-73
2022/10/08 01:06:17;;;;;;;3.37;2.60;;;;;;;10.06;nan;-24098.00;5097970;28;20174;-74
2022/10/08 01:08:52;;;;;;;2.67;2.33;;;;;;;10.05;nan;-24097.88;5099465;28;20226;-73
2022/10/08 01:12:02;;;;;;;3.90;2.43;;;;;;;10.01;nan;-24096.59;5098724;28;20554;-76
2022/10/08 01:14:58;;;;;;;3.90;2.40;;;;;;;9.96;nan;-24095.19;5033680;28;20197;-76
2022/10/08 01:17:41;;;;;;;2.83;2.27;;;;;;;9.86;nan;-24092.50;5068458;28;20185;-75
2022/10/08 01:20:19;;;;;;;3.90;2.60;;;;;;;9.98;nan;-24095.75;5098028;28;20177;-73
2022/10/08 01:23:19;;;;;;;6.40;3.20;;;;;;;9.99;nan;-24096.16;5077020;28;20305;-74
2022/10/08 01:25:54;;;;;;;3.00;2.17;;;;;;;9.96;nan;-24095.19;5078033;28;20182;-75
2022/10/08 01:28:27;;;;;;;3.43;2.20;;;;;;;9.84;nan;-24091.94;5076963;28;20629;-74
2022/10/08 01:30:55;;;;;;;3.00;2.30;;;;;;;9.62;nan;-24085.72;5078175;28;20166;-75
2022/10/08 01:33:28;;;;;;;3.70;2.70;;;;;;;9.83;nan;-24091.50;5077433;28;20642;-76
2022/10/08 01:35:58;;;;;;;6.17;2.53;;;;;;;9.80;nan;-24090.66;5071848;28;20575;-74
2022/10/08 01:38:28;;;;;;;2.97;2.37;;;;;;;9.83;nan;-24091.50;5071381;28;20652;-77
2022/10/08 01:40:58;;;;;;;3.07;2.10;;;;;;;9.66;nan;-24086.84;5072799;28;20182;-77
2022/10/08 01:43:27;;;;;;;2.30;2.10;;;;;;;9.53;nan;-24083.31;5072669;28;20198;-77
2022/10/08 01:45:58;;;;;;;4.00;2.33;;;;;;;9.53;nan;-24083.31;5072719;28;20189;-74
2022/10/08 01:48:28;;;;;;;4.27;2.50;;;;;;;9.88;nan;-24092.91;5072919;28;20224;-75
2022/10/08 01:51:12;;;;;;;2.97;2.13;;;;;;;9.70;nan;-24088.13;5072806;28;20204;-74
2022/10/08 01:53:40;;;;;;;2.30;2.10;;;;;;;9.83;nan;-24091.66;5071387;28;20527;-77
2022/10/08 01:56:11;;;;;;;2.47;2.20;;;;;;;9.67;nan;-24087.28;5070947;28;20182;-76
2022/10/08 01:58:58;;;;;;;3.20;2.30;;;;;;;9.59;nan;-24085.00;5071634;28;20634;-77
2022/10/08 02:01:35;;;;;;;4.23;2.33;;;;;;;9.57;nan;-24084.31;5071588;28;20261;-74
2022/10/08 02:06:54;;;;;;;3.63;2.63;;;;;;;9.52;nan;-24082.91;5072494;28;20178;-77
2022/10/08 02:09:20;;;;;;;3.63;2.30;;;;;;;9.71;nan;-24088.41;5072002;28;20162;-75
2022/10/08 02:11:45;;;;;;;2.53;2.00;;;;;;;9.38;nan;-24079.06;5072726;28;20649;-74
2022/10/08 02:14:11;;;;;;;3.73;2.43;;;;;;;9.68;nan;-24087.56;5072128;28;20197;-75
2022/10/08 02:16:44;;;;;;;2.53;2.23;;;;;;;9.68;nan;-24087.41;5072403;28;20257;-74
2022/10/08 02:19:16;;;;;;;3.03;2.67;;;;;;;9.74;nan;-24089.09;5071430;28;20174;-74
2022/10/08 02:21:43;;;;;;;4.03;2.23;;;;;;;9.42;nan;-24080.22;5071942;28;20212;-73
2022/10/08 02:24:18;;;;;;;2.97;2.43;;;;;;;9.58;nan;-24084.72;5069118;28;20697;-73
2022/10/08 02:26:48;;;;;;;4.17;2.70;;;;;;;9.19;nan;-24073.72;5071891;28;20253;-73
2022/10/08 02:29:35;;;;;;;3.03;2.67;;;;;;;9.59;nan;-24085.00;5070420;28;20220;-74
2022/10/08 02:32:20;;;;;;;4.10;2.63;;;;;;;9.53;nan;-24083.31;5070467;28;20218;-77
2022/10/08 02:35:01;;;;;;;3.73;2.63;;;;;;;9.13;nan;-24072.00;5070684;28;20627;-75
2022/10/08 02:37:38;;;;;;;5.27;3.10;;;;;;;9.39;nan;-24079.34;5071675;28;20604;-74
2022/10/08 02:40:09;;;;;;;2.50;2.30;;;;;;;9.25;nan;-24075.53;5072019;28;20247;-75
2022/10/08 02:42:36;;;;;;;7.10;2.43;;;;;;;9.30;nan;-24076.81;5071512;28;20273;-74
2022/10/08 02:45:12;;;;;;;2.87;2.50;;;;;;;9.13;nan;-24072.00;5071712;28;20177;-76
2022/10/08 02:47:42;;;;;;;4.63;2.40;;;;;;;9.20;nan;-24074.00;5071710;28;20185;-74
2022/10/08 02:50:16;;;;;;;3.77;2.30;;;;;;;8.93;nan;-24066.34;5071618;28;20190;-76
2022/10/08 02:52:43;;;;;;;4.77;2.50;;;;;;;8.99;nan;-24068.19;5071685;28;20161;-74
2022/10/08 02:55:53;;;;;;;4.37;2.93;;;;;;;9.14;nan;-24072.28;5071001;28;20622;-74
2022/10/08 02:58:19;;;;;;;2.93;2.63;;;;;;;9.00;nan;-24068.47;5008021;28;20200;-74
2022/10/08 03:01:02;;;;;;;3.27;2.70;;;;;;;8.76;nan;-24061.69;5071527;28;20637;-75
2022/10/08 03:03:33;;;;;;;4.80;2.83;;;;;;;8.96;nan;-24067.19;5071182;28;20204;-74
2022/10/08 03:06:05;;;;;;;2.97;2.57;;;;;;;8.89;nan;-24065.34;5070227;28;20200;-76
2022/10/08 03:08:31;;;;;;;2.80;2.53;;;;;;;8.56;nan;-24056.03;5071753;28;20174;-74
2022/10/08 03:10:58;;;;;;;3.17;2.50;;;;;;;8.69;nan;-24059.84;5071438;28;20645;-74
2022/10/08 03:13:25;;;;;;;5.10;2.97;;;;;;;8.54;nan;-24055.47;5071075;28;20246;-75
2022/10/08 03:15:52;;;;;;;4.93;3.10;;;;;;;8.74;nan;-24061.25;5071353;28;20608;-73
2022/10/08 03:18:21;;;;;;;2.87;2.23;;;;;;;8.47;nan;-24053.47;5071235;28;20162;-76
2022/10/08 03:20:50;;;;;;;3.10;2.27;;;;;;;8.68;nan;-24059.56;5070174;28;20178;-75
2022/10/08 03:23:17;;;;;;;2.97;2.60;;;;;;;8.81;nan;-24063.09;5082531;28;20225;-77
2022/10/08 03:25:42;;;;;;;3.77;2.60;;;;;;;8.75;nan;-24061.53;5072886;28;20313;-77
2022/10/08 03:28:08;;;;;;;3.03;2.50;;;;;;;8.39;nan;-24051.50;5091272;28;20185;-75
2022/10/08 03:30:34;;;;;;;4.80;2.77;;;;;;;8.71;nan;-24060.25;5090975;28;20177;-76
2022/10/08 03:32:59;;;;;;;2.70;2.17;;;;;;;8.66;nan;-24059.00;5091246;28;20688;-77
2022/10/08 03:35:25;;;;;;;3.83;2.70;;;;;;;8.78;nan;-24062.25;5070272;28;20193;-76
2022/10/08 03:37:52;;;;;;;3.10;2.60;;;;;;;8.59;nan;-24057.00;5080862;28;20196;-77
2022/10/08 03:40:18;;;;;;;3.33;2.53;;;;;;;8.67;nan;-24059.28;5091280;28;20177;-74
2022/10/08 03:42:43;;;;;;;4.60;2.67;;;;;;;8.76;nan;-24061.69;5090773;28;20697;-76
2022/10/08 03:45:09;;;;;;;3.40;2.93;;;;;;;8.63;nan;-24058.00;5093254;28;20180;-76
2022/10/08 03:47:34;;;;;;;4.17;2.63;;;;;;;8.69;nan;-24059.69;5090885;28;20665;-76
2022/10/08 03:50:00;;;;;;;3.53;2.33;;;;;;;8.25;nan;-24047.38;5072934;28;20178;-76
2022/10/08 03:52:25;;;;;;;4.47;2.73;;;;;;;8.60;nan;-24057.28;5091088;28;20185;-75
2022/10/08 03:54:50;;;;;;;3.00;2.20;;;;;;;8.58;nan;-24056.72;5072909;28;20177;-77
2022/10/08 03:57:16;;;;;;;4.57;2.53;;;;;;;8.65;nan;-24058.72;5091205;28;20573;-79
2022/10/08 03:59:41;;;;;;;9.90;2.80;;;;;;;8.76;nan;-24061.69;5090927;28;20177;-75
2022/10/08 04:02:06;;;;;;;2.87;2.10;;;;;;;8.26;nan;-24047.81;5072516;28;20169;-75
2022/10/08 04:04:32;;;;;;;3.20;2.50;;;;;;;8.35;nan;-24050.22;5090908;28;20170;-73
2022/10/08 04:06:57;;;;;;;2.83;2.23;;;;;;;8.45;nan;-24052.91;5091212;28;20256;-77
2022/10/08 04:09:22;;;;;;;3.30;2.53;;;;;;;8.46;nan;-24053.34;5072974;28;20181;-76
2022/10/08 04:11:48;;;;;;;3.00;2.70;;;;;;;8.55;nan;-24055.88;5072845;28;20624;-75
2022/10/08 04:14:13;;;;;;;2.77;2.13;;;;;;;8.21;nan;-24046.25;5089204;28;20262;-77
2022/10/08 04:16:39;;;;;;;4.37;2.80;;;;;;;8.03;nan;-24041.16;5091419;28;20652;-76
2022/10/08 04:19:04;;;;;;;2.57;2.27;;;;;;;8.33;nan;-24049.66;5088627;28;20182;-75
2022/10/08 04:21:30;;;;;;;3.13;2.53;;;;;;;8.18;nan;-24045.41;5084858;28;20216;-74
2022/10/08 04:23:56;;;;;;;3.53;2.23;;;;;;;8.42;nan;-24052.19;5094146;28;20234;-77
2022/10/08 04:26:21;;;;;;;3.10;2.80;;;;;;;8.34;nan;-24049.94;5089310;28;21303;-74
2022/10/08 04:28:47;;;;;;;3.13;2.23;;;;;;;8.40;nan;-24051.63;5080219;28;20173;-76
2022/10/08 04:31:16;;;;;;;3.83;2.93;;;;;;;8.45;nan;-24053.06;5094840;28;20181;-76
2022/10/08 04:33:42;;;;;;;4.70;2.40;;;;;;;8.50;nan;-24054.31;5092965;28;20180;-76
2022/10/08 04:36:13;;;;;;;2.47;1.97;;;;;;;8.49;nan;-24054.19;5089601;28;20221;-76
2022/10/08 04:38:40;;;;;;;2.70;2.23;;;;;;;8.42;nan;-24052.34;5087388;28;20180;-75
2022/10/08 04:41:14;;;;;;;2.30;2.10;;;;;;;8.46;nan;-24053.19;5097349;28;20220;-74
2022/10/08 04:43:42;;;;;;;2.63;2.40;;;;;;;8.00;nan;-24040.44;5091424;28;20196;-75
2022/10/08 04:46:10;;;;;;;2.47;2.23;;;;;;;8.18;nan;-24045.53;5083615;28;20239;-78
2022/10/08 04:48:36;;;;;;;3.97;2.80;;;;;;;8.37;nan;-24050.78;5096749;28;20256;-76
2022/10/08 04:51:04;;;;;;;4.63;2.13;;;;;;;8.63;nan;-24058.16;5094459;28;20219;-75
2022/10/08 04:53:29;;;;;;;2.40;2.20;;;;;;;8.50;nan;-24054.47;5093625;28;20177;-76
2022/10/08 04:55:56;;;;;;;2.77;2.27;;;;;;;8.27;nan;-24047.94;5093460;28;20619;-75
2022/10/08 04:58:24;;;;;;;3.33;2.50;;;;;;;8.32;nan;-24049.38;5088805;28;20182;-76
2022/10/08 05:00:50;;;;;;;3.23;2.57;;;;;;;8.52;nan;-24054.88;5099830;28;20636;-74
2022/10/08 05:03:19;;;;;;;4.07;2.67;;;;;;;8.64;nan;-24058.44;5093174;28;20201;-77
2022/10/08 05:05:45;;;;;;;3.37;2.70;;;;;;;8.90;nan;-24065.66;5093624;28;20169;-75
2022/10/08 05:08:11;;;;;;;5.10;3.40;;;;;;;8.73;nan;-24060.97;5093565;28;20181;-74
2022/10/08 05:10:37;;;;;;;3.37;2.80;;;;;;;8.91;nan;-24065.78;5094044;28;20175;-76
2022/10/08 05:13:03;;;;;;;7.23;2.70;;;;;;;8.87;nan;-24064.78;5093119;28;20165;-79
2022/10/08 05:15:29;;;;;;;5.73;2.73;;;;;;;9.30;nan;-24076.81;5093691;28;20162;-77
2022/10/08 05:17:55;;;;;;;3.17;2.60;;;;;;;9.45;nan;-24080.91;5094361;28;20612;-73
2022/10/08 05:20:21;;;;;;;3.17;2.73;;;;;;;9.40;nan;-24079.63;5075484;28;20640;-76
2022/10/08 05:22:46;;;;;;;2.47;2.20;;;;;;;9.48;nan;-24081.91;5069437;28;20229;-74
2022/10/08 05:25:12;;;;;;;3.37;2.60;;;;;;;9.60;nan;-24085.28;5082029;28;20196;-77
2022/10/08 05:27:37;;;;;;;4.73;3.27;;;;;;;9.88;nan;-24092.91;5072786;28;20186;-77
2022/10/08 05:30:03;;;;;;;2.90;2.63;;;;;;;9.67;nan;-24087.13;5068264;28;20248;-76
2022/10/08 05:32:28;;;;;;;3.77;2.70;;;;;;;9.82;nan;-24091.38;5074975;28;20243;-74
2022/10/08 05:34:54;;;;;;;4.07;2.80;;;;;;;9.89;nan;-24093.34;5072685;28;20204;-76
2022/10/08 05:37:19;;;;;;;4.77;3.23;;;;;;;10.47;nan;-24109.59;5072735;28;20205;-76
2022/10/08 05:39:48;;;;;;;5.57;2.53;;;;;;;10.41;nan;-24107.88;5071282;28;20178;-75
2022/10/08 05:42:13;;;;;;;3.50;2.80;;;;;;;10.58;nan;-24112.56;5070487;28;20316;-77
2022/10/08 05:44:39;;;;;;;4.07;2.97;;;;;;;10.35;nan;-24106.19;5079269;28;20546;-75
2022/10/08 05:47:05;;;;;;;4.17;2.80;;;;;;;10.91;nan;-24121.84;5074416;28;20592;-75
2022/10/08 05:49:30;;;;;;;3.83;2.50;;;;;;;11.03;nan;-24125.25;5072897;28;20668;-74
2022/10/08 05:51:56;;;;;;;3.67;2.83;;;;;;;10.79;nan;-24118.34;5088703;28;20615;-72
2022/10/08 05:54:21;;;;;;;3.37;2.60;;;;;;;11.06;nan;-24126.09;5071063;28;20256;-72
2022/10/08 05:56:47;;;;;;;4.10;2.50;;;;;;;11.65;nan;-24142.44;5060467;28;20593;-76
2022/10/08 05:59:18;;;;;;;5.10;2.87;;;;;;;11.74;nan;-24144.97;5064276;28;20196;-75
2022/10/08 06:01:43;;;;;;;8.43;3.03;;;;;;;12.03;nan;-24153.00;5062948;28;20188;-62
2022/10/08 06:04:10;;;;;;;3.97;2.93;;;;;;;12.07;nan;-24154.00;5077779;28;20793;-63
2022/10/08 06:06:37;;;;;;;5.10;2.60;;;;;;;12.22;nan;-24158.22;5070134;28;20200;-62
2022/10/08 06:09:03;;;;;;;2.83;2.53;;;;;;;12.46;nan;-24164.81;5072148;28;20687;-62
2022/10/08 06:11:31;;;;;;;4.68;2.83;;;;;;;12.28;nan;-24160.03;5058949;28;20228;-61
2022/10/08 06:13:58;;;;;;;5.40;2.25;;;;;;;12.49;nan;-24165.66;5057499;28;20189;-62
2022/10/08 06:16:25;;;;;;;3.05;2.38;;;;;;;12.85;nan;-24175.78;5057029;28;20554;-62
2022/10/08 06:18:51;;;;;;;3.30;2.55;;;;;;;12.97;nan;-24179.16;5058065;28;20731;-62
2022/10/08 06:21:20;;;;;;;2.80;2.22;;;;;;;11.00;nan;-24124.25;5058557;28;20194;-62
2022/10/08 06:23:51;;;;;;;4.40;2.78;;;;;;;13.33;nan;-24189.00;5084881;28;20646;-63
2022/10/08 06:26:18;;;;;;;6.18;2.50;;;;;;;13.81;nan;-24202.50;5096881;28;20178;-62
2022/10/08 06:28:44;;;;;;;4.35;2.75;;;;;;;13.85;nan;-24203.47;5078772;28;20186;-62
2022/10/08 06:31:10;;;;;;;4.22;2.30;;;;;;;13.88;nan;-24204.31;5089085;28;20181;-65
2022/10/08 06:33:36;;;;;;;7.85;2.40;;;;;;;14.31;nan;-24216.38;5094466;28;20177;-64
2022/10/08 06:36:24;;;;;;;3.33;2.35;;;;;;;14.15;nan;-24212.03;5091734;28;20185;-64
2022/10/08 06:38:51;;;;;;;2.83;2.17;;;;;;;14.49;nan;-24221.44;5082807;28;20196;-65
2022/10/08 06:41:17;;;;;;;3.60;2.45;;;;;;;14.80;nan;-24229.97;5077008;28;20324;-66
2022/10/08 06:43:42;;;;;;;3.25;2.25;;;;;;;14.85;nan;-24231.38;5078339;28;20202;-63
2022/10/08 06:46:08;;;;;;;2.50;2.13;;;;;;;14.80;nan;-24229.84;5076112;28;20182;-64
2022/10/08 06:48:34;;;;;;;3.72;2.50;;;;;;;15.38;nan;-24246.09;5081745;28;20191;-65
2022/10/08 06:51:02;;;;;;;3.92;2.33;;;;;;;15.35;nan;-24245.13;5086249;28;20264;-62
2022/10/08 06:53:29;;;;;;;3.65;2.50;;;;;;;15.26;nan;-24242.72;5076738;28;20191;-61
2022/10/08 06:56:00;;;;;;;4.07;2.75;;;;;;;15.57;nan;-24251.13;5079274;28;20181;-62
2022/10/08 06:58:25;;;;;;;2.28;2.08;;;;;;;15.50;nan;-24249.31;5096376;28;20173;-62
2022/10/08 07:01:25;;;;;;;2.75;1.98;;;;;;;16.03;nan;-24264.00;5091209;28;20177;-62
2022/10/08 07:03:57;;;;;;;3.20;2.33;;;;;;;16.17;nan;-24267.78;5065764;28;20290;-61
2022/10/08 07:06:23;;;;;;;3.47;2.15;;;;;;;15.56;nan;-24250.84;5091465;28;20173;-61
2022/10/08 07:08:57;;;;;;;2.50;2.20;;;;;;;16.62;nan;-24280.38;5090972;28;20616;-61
2022/10/08 07:11:23;;;;;;;3.67;2.65;;;;;;;16.53;nan;-24277.84;5091537;28;20226;-62
2022/10/08 07:13:49;;;;;;;2.85;1.98;;;;;;;16.53;nan;-24277.72;5091705;28;20168;-62
2022/10/08 07:16:17;;;;;;;2.50;2.17;;;;;;;16.64;nan;-24280.94;5091037;28;20173;-64
2022/10/08 07:18:43;;;;;;;3.33;2.10;;;;;;;16.90;nan;-24287.91;5091151;28;20687;-62
2022/10/08 07:21:12;;;;;;;2.72;2.40;;;;;;;17.03;nan;-24291.69;5091682;28;20169;-63
2022/10/08 07:23:37;;;;;;;2.50;1.95;;;;;;;17.17;nan;-24295.44;5090966;28;20307;-62
2022/10/08 07:26:11;;;;;;;5.63;2.45;;;;;;;17.10;nan;-24293.63;5091297;28;20263;-62
2022/10/08 07:28:39;;;;;;;2.50;1.90;;;;;;;17.29;nan;-24298.81;5091256;28;20166;-61
2022/10/08 07:31:18;;;;;;;3.72;2.28;;;;;;;17.36;nan;-24300.75;5090468;28;20218;-61
2022/10/08 07:33:44;;;;;;;2.72;2.20;;;;;;;17.99;nan;-24318.19;5091114;28;20157;-62
2022/10/08 07:36:12;;;;;;;2.30;1.90;;;;;;;18.14;nan;-24322.25;5072306;28;20184;-61
2022/10/08 07:38:38;;;;;;;3.40;2.10;;;;;;;17.97;nan;-24317.50;5069404;28;20528;-63
2022/10/08 07:41:05;;;;;;;3.53;2.10;;;;;;;18.44;nan;-24330.47;5077712;28;20197;-62
2022/10/08 07:43:30;;;;;;;2.58;2.00;;;;;;;18.47;nan;-24331.44;5088721;28;20714;-63
2022/10/08 07:45:56;;;;;;;2.97;2.30;;;;;;;18.60;nan;-24334.91;5075399;28;20285;-63
2022/10/08 07:48:22;;;;;;;2.35;1.73;;;;;;;18.53;nan;-24333.13;5082256;28;20264;-62
2022/10/08 07:50:47;;;;;;;1.88;1.67;;;;;;;18.34;nan;-24327.81;5079663;28;20183;-63
2022/10/08 07:53:13;;;;;;;3.58;2.35;;;;;;;18.53;nan;-24332.97;5089665;28;20178;-62
2022/10/08 07:55:38;;;;;;;3.90;2.40;;;;;;;18.36;nan;-24328.38;5090476;28;20324;-62
2022/10/08 07:58:03;;;;;;;4.05;2.10;;;;;;;18.32;nan;-24327.25;5077274;28;20209;-61
2022/10/08 08:00:29;;;;;;;3.42;2.05;;;;;;;18.35;nan;-24328.09;5094952;28;20211;-61
2022/10/08 08:02:55;;;;;;;7.22;2.60;;;;;;;18.76;nan;-24339.25;5092530;28;20292;-62
2022/10/08 08:05:20;;;;;;;2.10;1.88;;;;;;;18.65;nan;-24336.19;5094957;28;20193;-62
2022/10/08 08:07:46;;;;;;;4.80;2.25;;;;;;;18.68;nan;-24337.00;5086469;28;20177;-63
2022/10/08 08:10:11;;;;;;;2.83;2.00;;;;;;;19.31;nan;-24354.41;5090707;28;20656;-64
2022/10/08 08:12:37;;;;;;;3.08;2.15;;;;;;;19.08;nan;-24348.16;5089329;28;20173;-62
2022/10/08 08:15:02;;;;;;;3.33;2.08;;;;;;;19.48;nan;-24359.13;5080206;28;20887;-63
2022/10/08 08:17:28;;;;;;;2.95;2.15;;;;;;;19.32;nan;-24354.81;5099622;28;20257;-63
2022/10/08 08:19:53;;;;;;;3.83;2.63;;;;;;;19.49;nan;-24359.28;5086382;28;20185;-64
2022/10/08 08:22:19;;;;;;;2.42;2.00;;;;;;;19.16;nan;-24350.38;5080032;28;20232;-63
2022/10/08 08:24:44;;;;;;;4.32;2.25;;;;;;;19.46;nan;-24358.44;5079591;28;20195;-62
2022/10/08 08:27:10;;;;;;;3.97;2.22;;;;;;;19.16;nan;-24350.22;5095255;28;20238;-62
2022/10/08 08:29:35;;;;;;;2.28;1.70;;;;;;;19.04;nan;-24346.91;5099003;28;20227;-62
2022/10/08 08:32:00;;;;;;;4.38;2.10;;;;;;;19.22;nan;-24352.03;5084584;28;20170;-62
2022/10/08 08:34:26;;;;;;;2.72;2.33;;;;;;;19.46;nan;-24358.59;5100442;28;20644;-63
2022/10/08 08:36:52;;;;;;;2.75;1.90;;;;;;;20.03;nan;-24374.28;5090139;28;20184;-63
2022/10/08 08:39:24;;;;;;;3.53;2.10;;;;;;;20.27;nan;-24380.97;5079554;28;20178;-62
2022/10/08 08:41:52;;;;;;;4.60;2.22;;;;;;;20.33;nan;-24382.50;5091155;28;20170;-62
2022/10/08 08:44:23;;;;;;;4.20;2.20;;;;;;;20.19;nan;-24378.75;5100102;28;21081;-62
2022/10/08 08:47:24;;;;;;;3.20;2.05;;;;;;;20.51;nan;-24387.50;5080729;28;20289;-62
2022/10/08 08:50:04;;;;;;;4.35;2.08;;;;;;;20.15;nan;-24377.47;5092919;28;20246;-62
2022/10/08 08:52:39;;;;;;;2.20;1.77;;;;;;;20.39;nan;-24384.03;5093607;28;20184;-62
2022/10/08 08:55:14;;;;;;;3.40;2.25;;;;;;;20.60;nan;-24389.84;5093822;28;20176;-62
2022/10/08 08:57:45;;;;;;;3.15;2.05;;;;;;;20.79;nan;-24394.97;5093343;28;20225;-62
2022/10/08 09:00:21;;;;;;;2.35;1.98;;;;;;;20.92;nan;-24398.72;5093568;28;20256;-62
2022/10/08 09:02:53;;;;;;;2.78;2.05;;;;;;;21.13;nan;-24404.41;5092956;28;20253;-63
2022/10/08 09:05:20;;;;;;;2.92;1.90;;;;;;;20.87;nan;-24397.34;5093520;28;20268;-62
2022/10/08 09:07:52;;;;;;;3.80;2.25;;;;;;;21.27;nan;-24408.28;5093200;28;20193;-62
2022/10/08 09:10:23;;;;;;;3.05;2.20;;;;;;;21.45;nan;-24413.28;5093460;28;20200;-64
2022/10/08 09:12:51;;;;;;;4.20;2.15;;;;;;;21.43;nan;-24412.72;5092923;28;20189;-62
2022/10/08 09:15:25;;;;;;;3.65;2.33;;;;;;;21.50;nan;-24414.53;5092991;28;20185;-63
2022/10/08 09:17:51;;;;;;;3.05;2.30;;;;;;;21.21;nan;-24406.63;5093237;28;20196;-63
2022/10/08 09:20:20;;;;;;;3.67;2.08;;;;;;;21.35;nan;-24410.38;5093386;28;20181;-63
2022/10/08 09:22:48;;;;;;;3.50;2.20;;;;;;;21.35;nan;-24410.50;5092466;28;20224;-63
2022/10/08 09:25:16;;;;;;;3.33;2.20;;;;;;;21.56;nan;-24416.34;5093005;28;20173;-61
2022/10/08 09:27:56;;;;;;;3.38;2.40;;;;;;;21.48;nan;-24413.97;5093193;28;20205;-61
2022/10/08 09:30:43;;;;;;;3.47;2.30;;;;;;;21.90;nan;-24425.63;5093206;28;20199;-62
2022/10/08 09:33:11;;;;;;;3.03;1.90;;;;;;;21.93;nan;-24426.44;5092565;28;20259;-62
2022/10/08 09:35:43;;;;;;;4.13;2.40;;;;;;;20.02;nan;-24373.88;5092566;28;20154;-62
2022/10/08 09:38:25;;;;;;;3.67;2.42;;;;;;;22.01;nan;-24428.66;5093157;28;20177;-62
2022/10/08 09:41:02;;;;;;;3.05;2.45;;;;;;;22.22;nan;-24434.19;5092554;28;20547;-62
2022/10/08 09:43:28;;;;;;;3.45;2.20;;;;;;;21.76;nan;-24421.75;5092231;28;20650;-62
2022/10/08 09:45:54;;;;;;;4.10;2.55;;;;;;;21.59;nan;-24417.03;5092837;28;20185;-63
2022/10/08 09:48:24;;;;;;;3.28;2.22;;;;;;;22.01;nan;-24428.53;5092881;28;20260;-62
2022/10/08 09:50:50;;;;;;;3.35;2.20;;;;;;;22.10;nan;-24430.88;5092594;28;20188;-61
2022/10/08 09:53:16;;;;;;;3.70;2.35;;;;;;;21.85;nan;-24424.09;5092613;28;20169;-62
2022/10/08 09:55:50;;;;;;;2.50;2.03;;;;;;;21.70;nan;-24420.06;5092489;28;20322;-62
2022/10/08 09:58:17;;;;;;;3.33;2.28;;;;;;;21.71;nan;-24420.34;5092444;28;20173;-62
2022/10/08 10:00:43;;;;;;;3.13;2.20;;;;;;;21.92;nan;-24426.03;5092382;28;20173;-62
2022/10/08 10:03:16;;;;;;;2.95;2.17;;;;;;;22.06;nan;-24429.91;5091981;28;20220;-63
2022/10/08 10:05:42;;;;;;;2.47;2.10;;;;;;;22.32;nan;-24437.09;5092147;28;20177;-63
2022/10/08 10:08:39;;;;;;;3.78;2.28;;;;;;;22.15;nan;-24432.41;5091379;28;20182;-62
2022/10/08 10:11:05;;;;;;;3.40;2.45;;;;;;;22.18;nan;-24433.09;5094619;28;20181;-63
2022/10/08 10:13:37;;;;;;;3.97;2.63;;;;;;;22.25;nan;-24435.16;5092348;28;20257;-63
2022/10/08 10:16:17;;;;;;;2.58;2.25;;;;;;;22.22;nan;-24434.19;5092126;28;20177;-64
2022/10/08 10:18:56;;;;;;;2.42;2.03;;;;;;;22.30;nan;-24436.41;5092361;28;20173;-64
2022/10/08 10:21:29;;;;;;;3.20;2.15;;;;;;;22.05;nan;-24429.50;5091720;28;20297;-63
2022/10/08 10:24:05;;;;;;;4.35;2.13;;;;;;;21.55;nan;-24416.06;5092343;28;20232;-63
2022/10/08 10:26:37;;;;;;;4.82;1.90;;;;;;;22.06;nan;-24429.91;5092512;28;20165;-63
2022/10/08 10:29:14;;;;;;;4.10;2.53;;;;;;;22.28;nan;-24435.88;5092506;28;20284;-63
2022/10/08 10:31:53;;;;;;;2.83;2.13;;;;;;;22.51;nan;-24442.22;5091304;28;20165;-63
2022/10/08 10:34:29;;;;;;;3.10;2.53;;;;;;;22.53;nan;-24442.78;5091228;28;20173;-63
2022/10/08 10:36:58;;;;;;;4.20;2.45;;;;;;;22.41;nan;-24439.59;5073420;28;20157;-63
2022/10/08 10:39:29;;;;;;;3.25;2.30;;;;;;;22.52;nan;-24442.50;5092453;28;20227;-64
2022/10/08 10:42:18;;;;;;;3.25;2.17;;;;;;;22.29;nan;-24436.28;5091716;28;20172;-63
2022/10/08 10:44:55;;;;;;;2.28;1.88;;;;;;;22.35;nan;-24437.78;5092244;28;20238;-64
2022/10/08 10:47:29;;;;;;;3.80;2.38;;;;;;;22.48;nan;-24441.41;5091551;28;20555;-63
2022/10/08 10:49:54;;;;;;;3.17;2.20;;;;;;;22.44;nan;-24440.44;5091992;28;20177;-63
2022/10/08 10:52:51;;;;;;;2.58;1.98;;;;;;;22.65;nan;-24446.09;5091630;28;20184;-63
2022/10/08 10:55:38;;;;;;;2.20;2.00;;;;;;;22.62;nan;-24445.25;5091890;28;20581;-65
2022/10/08 10:58:22;;;;;;;2.70;1.85;;;;;;;22.55;nan;-24443.34;5091950;28;20165;-63
2022/10/08 11:01:12;;;;;;;4.78;1.67;;;;;;;22.54;nan;-24443.06;5092031;28;20268;-64
2022/10/08 11:04:02;;;;;;;2.00;1.67;;;;;;;22.50;nan;-24441.81;5091518;28;20594;-63
2022/10/08 11:06:37;;;;;;;3.63;1.65;;;;;;;22.73;nan;-24448.19;5091194;28;20624;-62
2022/10/08 11:09:05;;;;;;;2.17;1.60;;;;;;;22.75;nan;-24448.72;5091258;28;20222;-68
2022/10/08 11:12:00;;;;;;;3.08;1.88;;;;;;;22.72;nan;-24447.91;5091446;28;20165;-64
2022/10/08 11:14:59;;;;;;;1.98;1.63;;;;;;;22.64;nan;-24445.69;5089717;28;20233;-63
2022/10/08 11:17:31;;;;;;;3.70;2.00;;;;;;;22.64;nan;-24445.69;5090920;28;20200;-63
2022/10/08 11:20:09;;;;;;;2.20;1.70;;;;;;;22.68;nan;-24446.78;5091710;28;20165;-64
2022/10/08 11:22:50;;;;;;;3.65;2.00;;;;;;;22.72;nan;-24448.03;5091259;28;20227;-64
2022/10/08 11:25:47;;;;;;;2.13;1.52;;;;;;;22.96;nan;-24454.41;5091565;28;20211;-64
2022/10/08 11:28:26;;;;;;;2.78;1.92;;;;;;;22.94;nan;-24453.84;5080284;28;20185;-63
2022/10/08 11:30:58;;;;;;;3.30;2.08;;;;;;;23.08;nan;-24457.84;5091456;28;20192;-65
2022/10/08 11:33:24;;;;;;;2.05;1.83;;;;;;;22.90;nan;-24453.00;5095081;28;20169;-63
2022/10/08 11:36:13;;;;;;;2.85;2.00;;;;;;;23.11;nan;-24458.69;5094272;28;20254;-64
2022/10/08 11:38:51;;;;;;;2.97;1.90;;;;;;;22.97;nan;-24454.81;5095450;28;20176;-68
2022/10/08 11:41:52;;;;;;;2.55;1.80;;;;;;;23.16;nan;-24459.94;5095381;28;20165;-64
2022/10/08 11:44:19;;;;;;;2.55;1.85;;;;;;;23.05;nan;-24456.88;5094993;28;20191;-64
2022/10/08 11:46:45;;;;;;;4.05;1.88;;;;;;;23.31;nan;-24464.06;5095667;28;20252;-64
2022/10/08 11:49:11;;;;;;;2.38;1.67;;;;;;;23.14;nan;-24459.38;5094883;28;20197;-64
2022/10/08 11:51:38;;;;;;;2.60;1.90;;;;;;;22.65;nan;-24445.97;5094940;28;20177;-63
2022/10/08 11:54:06;;;;;;;2.13;1.70;;;;;;;22.82;nan;-24450.66;5094999;28;20215;-63
2022/10/08 11:56:35;;;;;;;1.90;1.70;;;;;;;22.66;nan;-24446.25;5094851;28;20199;-64
2022/10/08 11:59:21;;;;;;;4.85;1.50;;;;;;;23.21;nan;-24461.44;5094963;28;20176;-64
2022/10/08 12:01:52;;;;;;;2.03;1.50;;;;;;;23.06;nan;-24457.16;5094528;28;20283;-64
2022/10/08 12:04:26;;;;;;;2.38;1.85;;;;;;;23.31;nan;-24464.06;5094469;28;20205;-62
2022/10/08 12:07:06;;;;;;;1.90;1.60;;;;;;;23.33;nan;-24464.63;5094627;28;20157;-65